sensor_id;sensor_type;location;lat;lon;timestamp;P1;durP1;ratioP1;P2;durP2;ratioP2
757;SDS011;363;48.764;9.172;2024-03-06T00:00:58;4.50;;;3.40;;
757;SDS011;363;48.764;9.172;2024-03-06T00:03:24;4.13;;;3.43;;
757;SDS011;363;48.764;9.172;2024-03-06T00:05:49;4.50;;;3.73;;
757;SDS011;363;48.764;9.172;2024-03-06T00:08:15;4.00;;;3.40;;
757;SDS011;363;48.764;9.172;2024-03-06T00:10:40;3.80;;;3.07;;
757;SDS011;363;48.764;9.172;2024-03-06T00:13:06;3.78;;;3.25;;
757;SDS011;363;48.764;9.172;2024-03-06T00:15:32;4.28;;;3.88;;
757;SDS011;363;48.764;9.172;2024-03-06T00:17:58;3.60;;;3.30;;
757;SDS011;363;48.764;9.172;2024-03-06T00:20:24;3.97;;;3.50;;
757;SDS011;363;48.764;9.172;2024-03-06T00:22:50;3.83;;;3.53;;
757;SDS011;363;48.764;9.172;2024-03-06T00:25:15;3.90;;;3.20;;
757;SDS011;363;48.764;9.172;2024-03-06T00:27:41;3.50;;;3.20;;
757;SDS011;363;48.764;9.172;2024-03-06T00:30:06;3.37;;;3.03;;
757;SDS011;363;48.764;9.172;2024-03-06T00:32:32;3.20;;;2.80;;
757;SDS011;363;48.764;9.172;2024-03-06T00:35:00;3.40;;;3.10;;
757;SDS011;363;48.764;9.172;2024-03-06T00:37:26;3.03;;;2.83;;
757;SDS011;363;48.764;9.172;2024-03-06T00:39:52;3.22;;;2.90;;
757;SDS011;363;48.764;9.172;2024-03-06T00:42:17;4.07;;;3.10;;
757;SDS011;363;48.764;9.172;2024-03-06T00:44:43;3.27;;;3.00;;
757;SDS011;363;48.764;9.172;2024-03-06T00:47:08;3.60;;;2.60;;
757;SDS011;363;48.764;9.172;2024-03-06T00:49:34;5.33;;;2.83;;
757;SDS011;363;48.764;9.172;2024-03-06T00:51:59;2.60;;;2.40;;
757;SDS011;363;48.764;9.172;2024-03-06T00:54:25;3.10;;;2.80;;
757;SDS011;363;48.764;9.172;2024-03-06T00:56:50;6.00;;;2.90;;
757;SDS011;363;48.764;9.172;2024-03-06T00:59:16;2.73;;;2.53;;
757;SDS011;363;48.764;9.172;2024-03-06T01:01:41;4.30;;;3.33;;
757;SDS011;363;48.764;9.172;2024-03-06T01:04:07;3.83;;;2.87;;
757;SDS011;363;48.764;9.172;2024-03-06T01:06:32;5.33;;;3.23;;
757;SDS011;363;48.764;9.172;2024-03-06T01:08:58;4.80;;;3.07;;
757;SDS011;363;48.764;9.172;2024-03-06T01:11:24;3.20;;;3.00;;
757;SDS011;363;48.764;9.172;2024-03-06T01:13:51;3.17;;;2.80;;
757;SDS011;363;48.764;9.172;2024-03-06T01:16:16;5.83;;;3.27;;
757;SDS011;363;48.764;9.172;2024-03-06T01:18:43;3.50;;;3.20;;
757;SDS011;363;48.764;9.172;2024-03-06T01:21:08;3.60;;;3.07;;
757;SDS011;363;48.764;9.172;2024-03-06T01:23:34;4.40;;;3.13;;
757;SDS011;363;48.764;9.172;2024-03-06T01:25:59;3.30;;;2.97;;
757;SDS011;363;48.764;9.172;2024-03-06T01:28:25;3.27;;;2.90;;
757;SDS011;363;48.764;9.172;2024-03-06T01:30:51;3.10;;;2.80;;
757;SDS011;363;48.764;9.172;2024-03-06T01:33:16;2.70;;;2.50;;
757;SDS011;363;48.764;9.172;2024-03-06T01:35:42;3.87;;;3.10;;
757;SDS011;363;48.764;9.172;2024-03-06T01:38:07;3.80;;;3.27;;
757;SDS011;363;48.764;9.172;2024-03-06T01:40:35;3.42;;;3.13;;
757;SDS011;363;48.764;9.172;2024-03-06T01:43:00;3.67;;;3.37;;
757;SDS011;363;48.764;9.172;2024-03-06T01:45:26;2.90;;;2.70;;
757;SDS011;363;48.764;9.172;2024-03-06T01:47:51;3.23;;;2.87;;
757;SDS011;363;48.764;9.172;2024-03-06T01:50:17;3.80;;;3.50;;
757;SDS011;363;48.764;9.172;2024-03-06T01:52:43;3.65;;;3.25;;
757;SDS011;363;48.764;9.172;2024-03-06T01:55:11;4.78;;;3.20;;
757;SDS011;363;48.764;9.172;2024-03-06T01:57:38;3.72;;;3.05;;
757;SDS011;363;48.764;9.172;2024-03-06T02:00:04;3.30;;;3.00;;
757;SDS011;363;48.764;9.172;2024-03-06T02:02:33;3.75;;;3.00;;
757;SDS011;363;48.764;9.172;2024-03-06T02:04:59;4.30;;;3.40;;
757;SDS011;363;48.764;9.172;2024-03-06T02:07:25;4.17;;;3.77;;
757;SDS011;363;48.764;9.172;2024-03-06T02:09:50;3.30;;;3.00;;
757;SDS011;363;48.764;9.172;2024-03-06T02:12:17;2.90;;;2.70;;
757;SDS011;363;48.764;9.172;2024-03-06T02:14:43;3.50;;;3.20;;
757;SDS011;363;48.764;9.172;2024-03-06T02:17:09;3.60;;;3.23;;
757;SDS011;363;48.764;9.172;2024-03-06T02:19:38;3.77;;;2.80;;
757;SDS011;363;48.764;9.172;2024-03-06T02:22:08;4.13;;;3.00;;
757;SDS011;363;48.764;9.172;2024-03-06T02:24:35;4.15;;;2.60;;
757;SDS011;363;48.764;9.172;2024-03-06T02:27:01;3.58;;;2.90;;
757;SDS011;363;48.764;9.172;2024-03-06T02:29:27;3.22;;;2.80;;
757;SDS011;363;48.764;9.172;2024-03-06T02:31:53;5.00;;;2.57;;
757;SDS011;363;48.764;9.172;2024-03-06T02:34:18;4.10;;;3.17;;
757;SDS011;363;48.764;9.172;2024-03-06T02:36:44;4.10;;;3.27;;
757;SDS011;363;48.764;9.172;2024-03-06T02:39:10;5.03;;;4.03;;
757;SDS011;363;48.764;9.172;2024-03-06T02:41:35;4.43;;;3.83;;
757;SDS011;363;48.764;9.172;2024-03-06T02:44:01;4.13;;;3.83;;
757;SDS011;363;48.764;9.172;2024-03-06T02:46:27;5.25;;;4.30;;
757;SDS011;363;48.764;9.172;2024-03-06T02:48:53;4.30;;;3.90;;
757;SDS011;363;48.764;9.172;2024-03-06T02:51:19;8.07;;;3.92;;
757;SDS011;363;48.764;9.172;2024-03-06T02:53:45;5.10;;;3.67;;
757;SDS011;363;48.764;9.172;2024-03-06T02:56:18;3.97;;;3.57;;
757;SDS011;363;48.764;9.172;2024-03-06T02:58:44;5.13;;;4.10;;
757;SDS011;363;48.764;9.172;2024-03-06T03:01:10;4.45;;;4.05;;
757;SDS011;363;48.764;9.172;2024-03-06T03:03:36;4.60;;;4.20;;
757;SDS011;363;48.764;9.172;2024-03-06T03:06:01;4.53;;;4.03;;
757;SDS011;363;48.764;9.172;2024-03-06T03:08:27;4.63;;;3.90;;
757;SDS011;363;48.764;9.172;2024-03-06T03:10:53;5.60;;;4.37;;
757;SDS011;363;48.764;9.172;2024-03-06T03:13:18;6.30;;;4.80;;
757;SDS011;363;48.764;9.172;2024-03-06T03:15:44;5.37;;;4.77;;
757;SDS011;363;48.764;9.172;2024-03-06T03:18:09;4.37;;;3.87;;
757;SDS011;363;48.764;9.172;2024-03-06T03:20:35;3.93;;;3.63;;
757;SDS011;363;48.764;9.172;2024-03-06T03:23:01;7.03;;;4.90;;
757;SDS011;363;48.764;9.172;2024-03-06T03:25:27;5.23;;;4.17;;
757;SDS011;363;48.764;9.172;2024-03-06T03:27:52;5.97;;;4.53;;
757;SDS011;363;48.764;9.172;2024-03-06T03:30:18;4.23;;;3.87;;
757;SDS011;363;48.764;9.172;2024-03-06T03:32:46;4.88;;;4.32;;
757;SDS011;363;48.764;9.172;2024-03-06T03:35:12;7.53;;;4.70;;
757;SDS011;363;48.764;9.172;2024-03-06T03:37:38;5.97;;;5.37;;
757;SDS011;363;48.764;9.172;2024-03-06T03:40:04;5.10;;;4.60;;
757;SDS011;363;48.764;9.172;2024-03-06T03:42:32;5.35;;;4.60;;
757;SDS011;363;48.764;9.172;2024-03-06T03:44:57;7.10;;;4.47;;
757;SDS011;363;48.764;9.172;2024-03-06T03:47:23;4.60;;;3.80;;
757;SDS011;363;48.764;9.172;2024-03-06T03:49:49;4.17;;;3.77;;
757;SDS011;363;48.764;9.172;2024-03-06T03:52:15;4.13;;;3.60;;
757;SDS011;363;48.764;9.172;2024-03-06T03:54:40;4.68;;;4.13;;
757;SDS011;363;48.764;9.172;2024-03-06T03:57:06;4.23;;;3.87;;
757;SDS011;363;48.764;9.172;2024-03-06T03:59:33;5.65;;;4.90;;
757;SDS011;363;48.764;9.172;2024-03-06T04:01:58;5.20;;;3.90;;
757;SDS011;363;48.764;9.172;2024-03-06T04:04:24;4.13;;;3.73;;
757;SDS011;363;48.764;9.172;2024-03-06T04:06:50;4.10;;;3.70;;
757;SDS011;363;48.764;9.172;2024-03-06T04:09:15;4.23;;;3.83;;
757;SDS011;363;48.764;9.172;2024-03-06T04:11:41;4.53;;;4.10;;
757;SDS011;363;48.764;9.172;2024-03-06T04:14:06;4.70;;;3.00;;
757;SDS011;363;48.764;9.172;2024-03-06T04:16:33;4.07;;;3.45;;
757;SDS011;363;48.764;9.172;2024-03-06T04:18:59;4.95;;;3.90;;
757;SDS011;363;48.764;9.172;2024-03-06T04:21:24;4.70;;;3.67;;
757;SDS011;363;48.764;9.172;2024-03-06T04:23:50;3.87;;;3.57;;
757;SDS011;363;48.764;9.172;2024-03-06T04:26:15;4.77;;;3.80;;
757;SDS011;363;48.764;9.172;2024-03-06T04:28:42;4.30;;;3.38;;
757;SDS011;363;48.764;9.172;2024-03-06T04:31:08;4.82;;;3.67;;
757;SDS011;363;48.764;9.172;2024-03-06T04:33:34;6.50;;;3.53;;
757;SDS011;363;48.764;9.172;2024-03-06T04:36:00;4.10;;;3.43;;
757;SDS011;363;48.764;9.172;2024-03-06T04:38:32;4.57;;;3.35;;
757;SDS011;363;48.764;9.172;2024-03-06T04:40:58;4.83;;;4.20;;
757;SDS011;363;48.764;9.172;2024-03-06T04:43:23;4.60;;;3.73;;
757;SDS011;363;48.764;9.172;2024-03-06T04:45:49;4.67;;;4.27;;
757;SDS011;363;48.764;9.172;2024-03-06T04:48:14;4.60;;;4.20;;
757;SDS011;363;48.764;9.172;2024-03-06T04:50:40;3.70;;;3.40;;
757;SDS011;363;48.764;9.172;2024-03-06T04:53:06;6.50;;;5.17;;
757;SDS011;363;48.764;9.172;2024-03-06T04:55:31;6.37;;;4.63;;
757;SDS011;363;48.764;9.172;2024-03-06T04:57:57;6.47;;;5.07;;
757;SDS011;363;48.764;9.172;2024-03-06T05:00:23;5.20;;;4.70;;
757;SDS011;363;48.764;9.172;2024-03-06T05:02:48;7.30;;;4.57;;
757;SDS011;363;48.764;9.172;2024-03-06T05:05:14;5.37;;;4.73;;
757;SDS011;363;48.764;9.172;2024-03-06T05:07:40;4.80;;;4.07;;
757;SDS011;363;48.764;9.172;2024-03-06T05:10:05;5.13;;;4.63;;
757;SDS011;363;48.764;9.172;2024-03-06T05:12:32;6.60;;;5.28;;
757;SDS011;363;48.764;9.172;2024-03-06T05:14:59;6.25;;;4.38;;
757;SDS011;363;48.764;9.172;2024-03-06T05:17:25;5.20;;;4.70;;
757;SDS011;363;48.764;9.172;2024-03-06T05:19:50;6.17;;;5.17;;
757;SDS011;363;48.764;9.172;2024-03-06T05:22:16;4.97;;;4.57;;
757;SDS011;363;48.764;9.172;2024-03-06T05:24:42;5.80;;;5.30;;
757;SDS011;363;48.764;9.172;2024-03-06T05:27:09;5.63;;;5.13;;
757;SDS011;363;48.764;9.172;2024-03-06T05:29:38;6.07;;;5.40;;
757;SDS011;363;48.764;9.172;2024-03-06T05:32:04;7.05;;;5.55;;
757;SDS011;363;48.764;9.172;2024-03-06T05:34:32;8.63;;;6.05;;
757;SDS011;363;48.764;9.172;2024-03-06T05:36:58;6.28;;;5.47;;
757;SDS011;363;48.764;9.172;2024-03-06T05:39:24;7.07;;;5.10;;
757;SDS011;363;48.764;9.172;2024-03-06T05:41:49;7.10;;;6.40;;
757;SDS011;363;48.764;9.172;2024-03-06T05:44:15;7.20;;;5.33;;
757;SDS011;363;48.764;9.172;2024-03-06T05:46:41;6.13;;;5.10;;
757;SDS011;363;48.764;9.172;2024-03-06T05:49:06;6.37;;;4.70;;
757;SDS011;363;48.764;9.172;2024-03-06T05:51:32;5.17;;;4.70;;
757;SDS011;363;48.764;9.172;2024-03-06T05:53:57;7.17;;;5.07;;
757;SDS011;363;48.764;9.172;2024-03-06T05:56:23;7.77;;;5.70;;
757;SDS011;363;48.764;9.172;2024-03-06T05:58:48;6.57;;;5.30;;
757;SDS011;363;48.764;9.172;2024-03-06T06:01:18;8.40;;;7.60;;
757;SDS011;363;48.764;9.172;2024-03-06T06:03:45;6.40;;;4.63;;
757;SDS011;363;48.764;9.172;2024-03-06T06:06:14;7.38;;;5.40;;
757;SDS011;363;48.764;9.172;2024-03-06T06:08:40;6.00;;;5.32;;
757;SDS011;363;48.764;9.172;2024-03-06T06:11:05;8.43;;;5.00;;
757;SDS011;363;48.764;9.172;2024-03-06T06:13:31;7.97;;;4.83;;
757;SDS011;363;48.764;9.172;2024-03-06T06:15:59;6.17;;;5.50;;
757;SDS011;363;48.764;9.172;2024-03-06T06:18:28;5.82;;;4.80;;
757;SDS011;363;48.764;9.172;2024-03-06T06:20:53;5.57;;;5.07;;
757;SDS011;363;48.764;9.172;2024-03-06T06:23:19;5.33;;;4.83;;
757;SDS011;363;48.764;9.172;2024-03-06T06:25:44;6.00;;;5.40;;
757;SDS011;363;48.764;9.172;2024-03-06T06:28:10;8.33;;;4.57;;
757;SDS011;363;48.764;9.172;2024-03-06T06:30:36;6.03;;;4.90;;
757;SDS011;363;48.764;9.172;2024-03-06T06:33:03;6.78;;;5.20;;
757;SDS011;363;48.764;9.172;2024-03-06T06:35:29;7.82;;;4.65;;
757;SDS011;363;48.764;9.172;2024-03-06T06:37:55;6.70;;;5.10;;
757;SDS011;363;48.764;9.172;2024-03-06T06:40:28;7.03;;;5.70;;
757;SDS011;363;48.764;9.172;2024-03-06T06:43:15;9.90;;;7.65;;
757;SDS011;363;48.764;9.172;2024-03-06T06:51:49;5.40;;;4.90;;
757;SDS011;363;48.764;9.172;2024-03-06T06:54:26;9.07;;;5.63;;
757;SDS011;363;48.764;9.172;2024-03-06T07:00:35;10.45;;;5.50;;
757;SDS011;363;48.764;9.172;2024-03-06T07:03:02;6.38;;;5.22;;
757;SDS011;363;48.764;9.172;2024-03-06T07:05:28;8.65;;;5.97;;
757;SDS011;363;48.764;9.172;2024-03-06T07:07:54;7.40;;;5.90;;
757;SDS011;363;48.764;9.172;2024-03-06T07:10:20;7.10;;;5.97;;
757;SDS011;363;48.764;9.172;2024-03-06T07:12:46;8.70;;;6.60;;
757;SDS011;363;48.764;9.172;2024-03-06T07:15:12;7.37;;;5.77;;
757;SDS011;363;48.764;9.172;2024-03-06T07:17:39;7.10;;;6.40;;
757;SDS011;363;48.764;9.172;2024-03-06T07:20:04;7.40;;;5.10;;
757;SDS011;363;48.764;9.172;2024-03-06T07:22:31;6.10;;;5.50;;
757;SDS011;363;48.764;9.172;2024-03-06T07:24:58;7.55;;;6.10;;
757;SDS011;363;48.764;9.172;2024-03-06T07:27:27;7.50;;;5.35;;
757;SDS011;363;48.764;9.172;2024-03-06T07:29:53;6.83;;;5.50;;
757;SDS011;363;48.764;9.172;2024-03-06T07:32:19;6.00;;;4.97;;
757;SDS011;363;48.764;9.172;2024-03-06T07:34:44;6.53;;;5.83;;
757;SDS011;363;48.764;9.172;2024-03-06T07:37:11;7.97;;;6.33;;
757;SDS011;363;48.764;9.172;2024-03-06T07:39:39;6.97;;;5.35;;
757;SDS011;363;48.764;9.172;2024-03-06T07:42:06;7.78;;;5.55;;
757;SDS011;363;48.764;9.172;2024-03-06T07:44:37;8.10;;;5.82;;
757;SDS011;363;48.764;9.172;2024-03-06T07:57:18;7.68;;;6.85;;
757;SDS011;363;48.764;9.172;2024-03-06T07:59:45;13.38;;;7.53;;
757;SDS011;363;48.764;9.172;2024-03-06T08:02:29;10.27;;;8.00;;
757;SDS011;363;48.764;9.172;2024-03-06T08:11:57;8.68;;;6.80;;
757;SDS011;363;48.764;9.172;2024-03-06T08:14:23;9.30;;;7.00;;
757;SDS011;363;48.764;9.172;2024-03-06T08:16:50;7.43;;;6.53;;
757;SDS011;363;48.764;9.172;2024-03-06T08:19:16;8.47;;;6.80;;
757;SDS011;363;48.764;9.172;2024-03-06T08:21:42;8.52;;;5.63;;
757;SDS011;363;48.764;9.172;2024-03-06T08:24:08;7.47;;;6.30;;
757;SDS011;363;48.764;9.172;2024-03-06T08:29:46;5.10;;;4.70;;
757;SDS011;363;48.764;9.172;2024-03-06T08:32:13;6.60;;;6.00;;
757;SDS011;363;48.764;9.172;2024-03-06T08:34:39;6.73;;;5.70;;
757;SDS011;363;48.764;9.172;2024-03-06T08:37:04;6.13;;;4.73;;
757;SDS011;363;48.764;9.172;2024-03-06T08:39:31;5.38;;;4.88;;
757;SDS011;363;48.764;9.172;2024-03-06T08:41:57;5.78;;;5.20;;
757;SDS011;363;48.764;9.172;2024-03-06T08:44:26;5.57;;;5.00;;
757;SDS011;363;48.764;9.172;2024-03-06T08:46:57;7.80;;;5.70;;
757;SDS011;363;48.764;9.172;2024-03-06T08:52:13;9.25;;;7.70;;
757;SDS011;363;48.764;9.172;2024-03-06T08:54:42;9.40;;;6.07;;
757;SDS011;363;48.764;9.172;2024-03-06T08:57:25;7.40;;;6.68;;
757;SDS011;363;48.764;9.172;2024-03-06T08:59:53;8.20;;;6.25;;
757;SDS011;363;48.764;9.172;2024-03-06T09:02:19;6.43;;;5.85;;
757;SDS011;363;48.764;9.172;2024-03-06T09:04:45;7.10;;;5.87;;
757;SDS011;363;48.764;9.172;2024-03-06T09:07:11;6.47;;;5.40;;
757;SDS011;363;48.764;9.172;2024-03-06T09:09:38;7.18;;;5.70;;
757;SDS011;363;48.764;9.172;2024-03-06T09:12:07;7.65;;;5.30;;
757;SDS011;363;48.764;9.172;2024-03-06T09:14:37;7.57;;;6.05;;
757;SDS011;363;48.764;9.172;2024-03-06T09:17:04;5.65;;;5.05;;
757;SDS011;363;48.764;9.172;2024-03-06T09:19:33;7.80;;;6.30;;
757;SDS011;363;48.764;9.172;2024-03-06T09:21:59;9.80;;;5.68;;
757;SDS011;363;48.764;9.172;2024-03-06T09:24:26;7.87;;;6.57;;
757;SDS011;363;48.764;9.172;2024-03-06T09:26:52;7.75;;;5.95;;
757;SDS011;363;48.764;9.172;2024-03-06T09:29:18;6.07;;;5.45;;
757;SDS011;363;48.764;9.172;2024-03-06T09:31:44;6.82;;;6.07;;
757;SDS011;363;48.764;9.172;2024-03-06T09:34:10;6.50;;;5.73;;
757;SDS011;363;48.764;9.172;2024-03-06T09:36:37;9.68;;;6.00;;
757;SDS011;363;48.764;9.172;2024-03-06T09:39:05;7.43;;;5.60;;
757;SDS011;363;48.764;9.172;2024-03-06T09:41:30;10.00;;;6.17;;
757;SDS011;363;48.764;9.172;2024-03-06T09:43:56;8.17;;;6.20;;
757;SDS011;363;48.764;9.172;2024-03-06T09:46:25;7.60;;;6.18;;
757;SDS011;363;48.764;9.172;2024-03-06T09:48:52;7.00;;;6.07;;
757;SDS011;363;48.764;9.172;2024-03-06T09:51:18;6.22;;;5.63;;
757;SDS011;363;48.764;9.172;2024-03-06T09:53:45;7.28;;;6.57;;
757;SDS011;363;48.764;9.172;2024-03-06T09:56:14;7.78;;;7.00;;
757;SDS011;363;48.764;9.172;2024-03-06T09:58:40;8.35;;;6.88;;
757;SDS011;363;48.764;9.172;2024-03-06T10:01:05;9.23;;;7.20;;
757;SDS011;363;48.764;9.172;2024-03-06T10:03:33;12.30;;;7.80;;
757;SDS011;363;48.764;9.172;2024-03-06T10:05:59;8.50;;;7.70;;
757;SDS011;363;48.764;9.172;2024-03-06T10:08:25;8.73;;;7.93;;
757;SDS011;363;48.764;9.172;2024-03-06T10:10:51;11.75;;;9.20;;
757;SDS011;363;48.764;9.172;2024-03-06T10:13:17;9.07;;;8.27;;
757;SDS011;363;48.764;9.172;2024-03-06T10:15:48;10.00;;;7.60;;
757;SDS011;363;48.764;9.172;2024-03-06T10:18:26;9.95;;;9.05;;
757;SDS011;363;48.764;9.172;2024-03-06T10:20:56;11.45;;;8.85;;
757;SDS011;363;48.764;9.172;2024-03-06T10:23:22;10.25;;;8.35;;
757;SDS011;363;48.764;9.172;2024-03-06T10:25:49;10.47;;;9.40;;
757;SDS011;363;48.764;9.172;2024-03-06T10:28:18;11.45;;;9.10;;
757;SDS011;363;48.764;9.172;2024-03-06T10:30:47;9.40;;;8.48;;
757;SDS011;363;48.764;9.172;2024-03-06T10:33:13;9.57;;;8.60;;
757;SDS011;363;48.764;9.172;2024-03-06T10:35:43;11.40;;;9.55;;
757;SDS011;363;48.764;9.172;2024-03-06T10:38:09;11.57;;;10.35;;
757;SDS011;363;48.764;9.172;2024-03-06T10:40:40;10.45;;;8.90;;
757;SDS011;363;48.764;9.172;2024-03-06T10:43:16;10.05;;;9.15;;
757;SDS011;363;48.764;9.172;2024-03-06T10:46:27;10.45;;;9.52;;
757;SDS011;363;48.764;9.172;2024-03-06T10:48:53;10.88;;;9.88;;
757;SDS011;363;48.764;9.172;2024-03-06T10:51:23;11.20;;;10.18;;
757;SDS011;363;48.764;9.172;2024-03-06T10:53:51;12.05;;;10.95;;
757;SDS011;363;48.764;9.172;2024-03-06T10:56:18;12.63;;;11.43;;
757;SDS011;363;48.764;9.172;2024-03-06T10:58:46;12.45;;;11.25;;
757;SDS011;363;48.764;9.172;2024-03-06T11:01:15;11.98;;;10.73;;
757;SDS011;363;48.764;9.172;2024-03-06T11:03:42;13.57;;;11.98;;
757;SDS011;363;48.764;9.172;2024-03-06T11:06:07;13.50;;;12.10;;
757;SDS011;363;48.764;9.172;2024-03-06T11:08:33;14.70;;;12.03;;
757;SDS011;363;48.764;9.172;2024-03-06T11:11:18;14.50;;;13.00;;
757;SDS011;363;48.764;9.172;2024-03-06T11:13:48;14.75;;;12.70;;
757;SDS011;363;48.764;9.172;2024-03-06T11:16:13;13.68;;;12.00;;
757;SDS011;363;48.764;9.172;2024-03-06T11:23:33;14.57;;;12.80;;
757;SDS011;363;48.764;9.172;2024-03-06T11:26:03;17.10;;;13.95;;
757;SDS011;363;48.764;9.172;2024-03-06T11:28:33;14.52;;;13.02;;
757;SDS011;363;48.764;9.172;2024-03-06T11:31:04;17.70;;;13.60;;
757;SDS011;363;48.764;9.172;2024-03-06T11:33:34;17.27;;;13.90;;
757;SDS011;363;48.764;9.172;2024-03-06T11:36:20;17.15;;;14.77;;
757;SDS011;363;48.764;9.172;2024-03-06T11:38:57;15.95;;;13.80;;
757;SDS011;363;48.764;9.172;2024-03-06T11:43:52;17.77;;;14.77;;
757;SDS011;363;48.764;9.172;2024-03-06T11:46:20;19.60;;;15.40;;
757;SDS011;363;48.764;9.172;2024-03-06T11:48:53;16.77;;;15.07;;
757;SDS011;363;48.764;9.172;2024-03-06T11:51:20;17.90;;;15.90;;
757;SDS011;363;48.764;9.172;2024-03-06T11:53:49;18.13;;;14.70;;
757;SDS011;363;48.764;9.172;2024-03-06T11:56:18;23.38;;;17.35;;
757;SDS011;363;48.764;9.172;2024-03-06T11:58:56;20.45;;;16.45;;
757;SDS011;363;48.764;9.172;2024-03-06T12:01:21;18.10;;;15.73;;
757;SDS011;363;48.764;9.172;2024-03-06T12:03:47;20.47;;;17.53;;
757;SDS011;363;48.764;9.172;2024-03-06T12:06:13;21.07;;;16.80;;
757;SDS011;363;48.764;9.172;2024-03-06T12:08:41;22.30;;;15.90;;
757;SDS011;363;48.764;9.172;2024-03-06T12:14:18;17.85;;;15.70;;
757;SDS011;363;48.764;9.172;2024-03-06T12:16:54;19.63;;;16.20;;
757;SDS011;363;48.764;9.172;2024-03-06T12:19:27;19.70;;;16.73;;
757;SDS011;363;48.764;9.172;2024-03-06T12:21:54;19.02;;;16.15;;
757;SDS011;363;48.764;9.172;2024-03-06T12:24:20;18.40;;;16.37;;
757;SDS011;363;48.764;9.172;2024-03-06T12:26:57;19.23;;;17.13;;
757;SDS011;363;48.764;9.172;2024-03-06T12:29:29;20.85;;;17.00;;
757;SDS011;363;48.764;9.172;2024-03-06T12:31:56;17.83;;;16.00;;
757;SDS011;363;48.764;9.172;2024-03-06T12:34:22;20.80;;;15.83;;
757;SDS011;363;48.764;9.172;2024-03-06T12:39:38;19.65;;;15.65;;
757;SDS011;363;48.764;9.172;2024-03-06T13:03:34;23.70;;;17.65;;
757;SDS011;363;48.764;9.172;2024-03-06T13:06:20;24.77;;;18.10;;
757;SDS011;363;48.764;9.172;2024-03-06T13:08:46;22.15;;;17.05;;
757;SDS011;363;48.764;9.172;2024-03-06T13:11:19;20.52;;;17.63;;
757;SDS011;363;48.764;9.172;2024-03-06T13:13:44;21.80;;;17.37;;
757;SDS011;363;48.764;9.172;2024-03-06T13:16:10;21.07;;;17.20;;
757;SDS011;363;48.764;9.172;2024-03-06T13:18:36;22.60;;;18.67;;
757;SDS011;363;48.764;9.172;2024-03-06T13:21:02;20.23;;;16.75;;
757;SDS011;363;48.764;9.172;2024-03-06T13:23:28;20.30;;;16.23;;
757;SDS011;363;48.764;9.172;2024-03-06T13:25:54;20.85;;;17.50;;
757;SDS011;363;48.764;9.172;2024-03-06T13:28:19;19.90;;;16.53;;
757;SDS011;363;48.764;9.172;2024-03-06T13:30:46;19.15;;;15.68;;
757;SDS011;363;48.764;9.172;2024-03-06T13:33:12;19.63;;;16.53;;
757;SDS011;363;48.764;9.172;2024-03-06T13:35:39;20.30;;;16.20;;
757;SDS011;363;48.764;9.172;2024-03-06T13:38:05;19.58;;;16.27;;
757;SDS011;363;48.764;9.172;2024-03-06T13:40:33;17.40;;;15.52;;
757;SDS011;363;48.764;9.172;2024-03-06T13:42:59;17.70;;;15.30;;
757;SDS011;363;48.764;9.172;2024-03-06T13:45:25;19.67;;;16.45;;
757;SDS011;363;48.764;9.172;2024-03-06T13:47:51;16.92;;;15.10;;
757;SDS011;363;48.764;9.172;2024-03-06T13:50:17;18.93;;;13.93;;
757;SDS011;363;48.764;9.172;2024-03-06T13:52:58;17.42;;;14.30;;
757;SDS011;363;48.764;9.172;2024-03-06T13:55:24;17.90;;;15.35;;
757;SDS011;363;48.764;9.172;2024-03-06T14:00:34;29.70;;;26.15;;
757;SDS011;363;48.764;9.172;2024-03-06T14:03:00;23.77;;;18.30;;
757;SDS011;363;48.764;9.172;2024-03-06T14:16:34;17.73;;;15.82;;
757;SDS011;363;48.764;9.172;2024-03-06T15:22:52;19.48;;;16.35;;
757;SDS011;363;48.764;9.172;2024-03-06T15:25:19;17.85;;;15.18;;
757;SDS011;363;48.764;9.172;2024-03-06T15:27:45;15.77;;;14.17;;
757;SDS011;363;48.764;9.172;2024-03-06T15:30:12;17.73;;;15.23;;
757;SDS011;363;48.764;9.172;2024-03-06T15:32:39;21.77;;;16.38;;
757;SDS011;363;48.764;9.172;2024-03-06T15:35:05;19.70;;;16.27;;
757;SDS011;363;48.764;9.172;2024-03-06T15:37:30;18.23;;;16.20;;
757;SDS011;363;48.764;9.172;2024-03-06T15:39:58;21.45;;;18.50;;
757;SDS011;363;48.764;9.172;2024-03-06T15:42:28;21.88;;;16.27;;
757;SDS011;363;48.764;9.172;2024-03-06T15:44:54;19.80;;;16.90;;
757;SDS011;363;48.764;9.172;2024-03-06T15:47:20;18.80;;;15.50;;
757;SDS011;363;48.764;9.172;2024-03-06T15:49:46;19.05;;;16.65;;
757;SDS011;363;48.764;9.172;2024-03-06T15:52:12;21.83;;;17.75;;
757;SDS011;363;48.764;9.172;2024-03-06T15:54:38;19.98;;;16.58;;
757;SDS011;363;48.764;9.172;2024-03-06T15:57:05;20.80;;;18.50;;
757;SDS011;363;48.764;9.172;2024-03-06T15:59:35;21.63;;;18.20;;
757;SDS011;363;48.764;9.172;2024-03-06T16:02:01;22.15;;;18.25;;
757;SDS011;363;48.764;9.172;2024-03-06T16:04:27;21.40;;;16.90;;
757;SDS011;363;48.764;9.172;2024-03-06T16:06:53;20.77;;;18.10;;
757;SDS011;363;48.764;9.172;2024-03-06T16:09:19;21.73;;;17.10;;
757;SDS011;363;48.764;9.172;2024-03-06T16:11:45;21.67;;;17.47;;
757;SDS011;363;48.764;9.172;2024-03-06T16:14:11;24.80;;;18.87;;
757;SDS011;363;48.764;9.172;2024-03-06T16:16:39;22.70;;;17.60;;
757;SDS011;363;48.764;9.172;2024-03-06T16:19:06;20.75;;;17.05;;
757;SDS011;363;48.764;9.172;2024-03-06T16:21:33;23.33;;;17.97;;
757;SDS011;363;48.764;9.172;2024-03-06T16:23:59;27.17;;;19.38;;
757;SDS011;363;48.764;9.172;2024-03-06T16:26:28;25.75;;;20.05;;
757;SDS011;363;48.764;9.172;2024-03-06T16:28:54;22.83;;;18.63;;
757;SDS011;363;48.764;9.172;2024-03-06T16:31:20;23.70;;;17.90;;
757;SDS011;363;48.764;9.172;2024-03-06T16:33:46;24.02;;;18.98;;
757;SDS011;363;48.764;9.172;2024-03-06T16:36:12;28.90;;;19.60;;
757;SDS011;363;48.764;9.172;2024-03-06T16:38:37;22.67;;;18.00;;
757;SDS011;363;48.764;9.172;2024-03-06T16:41:03;22.90;;;17.77;;
757;SDS011;363;48.764;9.172;2024-03-06T16:43:29;24.43;;;19.10;;
757;SDS011;363;48.764;9.172;2024-03-06T16:45:55;26.40;;;19.67;;
757;SDS011;363;48.764;9.172;2024-03-06T16:48:21;30.13;;;19.43;;
757;SDS011;363;48.764;9.172;2024-03-06T16:50:47;23.30;;;18.70;;
757;SDS011;363;48.764;9.172;2024-03-06T16:53:12;27.77;;;22.27;;
757;SDS011;363;48.764;9.172;2024-03-06T16:55:41;23.67;;;18.73;;
757;SDS011;363;48.764;9.172;2024-03-06T16:58:08;23.05;;;19.58;;
757;SDS011;363;48.764;9.172;2024-03-06T17:00:34;25.75;;;20.15;;
757;SDS011;363;48.764;9.172;2024-03-06T17:03:02;24.85;;;19.55;;
757;SDS011;363;48.764;9.172;2024-03-06T17:05:29;23.90;;;19.58;;
757;SDS011;363;48.764;9.172;2024-03-06T17:07:54;26.03;;;19.87;;
757;SDS011;363;48.764;9.172;2024-03-06T17:10:22;23.13;;;18.65;;
757;SDS011;363;48.764;9.172;2024-03-06T17:12:50;26.02;;;19.77;;
757;SDS011;363;48.764;9.172;2024-03-06T17:15:16;22.83;;;18.70;;
757;SDS011;363;48.764;9.172;2024-03-06T17:17:41;28.57;;;20.70;;
757;SDS011;363;48.764;9.172;2024-03-06T17:20:08;25.95;;;20.92;;
757;SDS011;363;48.764;9.172;2024-03-06T17:22:34;27.95;;;21.15;;
757;SDS011;363;48.764;9.172;2024-03-06T17:24:59;24.80;;;20.33;;
757;SDS011;363;48.764;9.172;2024-03-06T17:27:25;29.40;;;20.92;;
757;SDS011;363;48.764;9.172;2024-03-06T17:29:51;25.67;;;20.03;;
757;SDS011;363;48.764;9.172;2024-03-06T17:32:17;24.10;;;20.30;;
757;SDS011;363;48.764;9.172;2024-03-06T17:34:55;25.48;;;20.05;;
757;SDS011;363;48.764;9.172;2024-03-06T17:37:21;26.38;;;20.48;;
757;SDS011;363;48.764;9.172;2024-03-06T17:39:56;28.77;;;22.27;;
757;SDS011;363;48.764;9.172;2024-03-06T17:42:22;26.58;;;21.75;;
757;SDS011;363;48.764;9.172;2024-03-06T17:44:48;24.30;;;20.77;;
757;SDS011;363;48.764;9.172;2024-03-06T17:47:14;25.83;;;20.33;;
757;SDS011;363;48.764;9.172;2024-03-06T17:49:44;29.15;;;23.90;;
757;SDS011;363;48.764;9.172;2024-03-06T17:52:09;27.25;;;20.48;;
757;SDS011;363;48.764;9.172;2024-03-06T17:54:35;27.23;;;20.83;;
757;SDS011;363;48.764;9.172;2024-03-06T17:57:01;25.43;;;20.47;;
757;SDS011;363;48.764;9.172;2024-03-06T17:59:27;27.17;;;20.42;;